Hauptseite
METAR-TAF:

METAR-TAF

Flughäfen :

Friedrichshafen, Deutschland

Flughafen Friedrichshafen

Breite: 47-40N, Länge: 009-31E, Höhe: 416 m

Beobachtung

Neuester Wetterbericht von vor 59 Minuten, um 10:20 UTC
Wind 1 kt aus unterschiedlichen Richtungen
Temperatur 8°C
Luftfeuchtigkeit 81%
Luftdruck 1015 hPa
Sichtweite 10 km oder mehr
keine Wolken unter 1500 m und keine Kumulonimbus oder Gewitterwolken

METAR: EDNY 231020Z VRB01KT CAVOK 08/05 Q1015

Zeit: 12:19 (11:19 UTC)

Prognose

Neuester Wetterbericht von vor 6 Stunden und 19 Minuten, um 05:00 UTC
Gültige Prognose vom 23 um 06 UTC bis 24 um 06 UTC
Wind 3 kt aus unterschiedlichen Richtungen
Sichtweite 10 km oder mehr
keine Wolken unter 1500 m und keine Kumulonimbus oder Gewitterwolken
Wahrscheinlichkeit 30% :
Zeitweise
vom 23 um 06 UTC bis 23 um 08 UTC
Sichtweite: 2500 m
Nebelschwaden

TAF: EDNY 230500Z 2306/2406 VRB03KT CAVOK PROB30 TEMPO 2306/2308 2500 BCFG

Wetterbeobachtungen und Prognosen von mehr als 4000 Flughäfen (METAR und TAF Bericht).

Die verfügbaren Stationen werden durch gelbe und rote Markierungen auf der Karte dargestellt.

Führen Sie die Maus auf sie, um den Namen der Station zu sehen.

Darauf klicken, um die Beobachtung von Wetterbeobachtungen und Prognosen zu sehen.

Um die Karte zu ändern : klicken Sie auf den grünen Tasten mit einem schwarzen Kreuz Zum Vergrößern, auf den grünen Button mit einem Gedankenstrich zu verkleinern, oder auf die grünen Pfeile für benachbarte Karten.


METAR-TAF: